Burlington, Maine
Current Conditions -  °F | °C
As of 4:53 AM on Thursday 29 Jan 2015 (Local Time) from KMLT Reporting Station
Clear Clear  
Wind Chill: -16°   Ceiling: Unl
Heat Index: -16°   Visibility: 10mi
Dew Point: -19°   Wind: 0mph
Humidity: 76%   Direction: NA
Pressure: 30.23"   Gusts: NA
Location:  45.21°N, 68.43°W
Report Text: KMLT 290953Z AUTO 00000KT 10SM CLR M16/M19 A3023 RMK AO2 SLP252 T11561189
Loading
Personal Weather Stations






























Interactive Weather Map New forecast layout! Learn more

10-Day Weather Forecast

Advertisements
Track Severe Weather on mobile